Time;durP1;ratioP1;P1;durP2;ratioP2;P2;SDS_P1;SDS_P2;PMS_P1;PMS_P2;Temp;Humidity;BMP_temperature;BMP_pressure;BME280_temperature;BME280_humidity;BME280_pressure;Samples;Min_cycle;Max_cycle;Signal;HPM_P1;HPM_P2
2023/08/11 06:00:34;;;;;;;325.35;13.93;;;;;;;;;;5822302;23;20063;-80
2023/08/11 06:02:59;;;;;;;147.02;9.60;;;;;;;;;;4935609;29;20122;-81
2023/08/11 06:05:24;;;;;;;202.40;11.52;;;;;;;;;;4934562;29;20506;-79
2023/08/11 06:07:50;;;;;;;181.25;10.35;;;;;;;;;;4934760;29;20044;-79
2023/08/11 06:10:16;;;;;;;452.40;15.25;;;;;;;;;;4934614;29;20122;-80
2023/08/11 06:12:41;;;;;;;231.95;10.07;;;;;;;;;;4934447;29;20512;-79
2023/08/11 06:15:08;;;;;;;287.65;11.90;;;;;;;;;;4934311;29;20046;-78
2023/08/11 06:17:36;;;;;;;311.17;11.90;;;;;;;;;;4935793;29;20040;-79
2023/08/11 06:20:04;;;;;;;298.50;11.10;;;;;;;;;;4935477;29;20040;-80
2023/08/11 06:22:31;;;;;;;315.15;12.02;;;;;;;;;;4935017;29;20091;-80
2023/08/11 06:24:56;;;;;;;457.50;15.02;;;;;;;;;;4935796;29;20054;-80
2023/08/11 06:27:22;;;;;;;473.10;16.20;;;;;;;;;;4934897;29;20044;-80
2023/08/11 06:29:47;;;;;;;441.95;15.75;;;;;;;;;;4935809;29;20044;-80
2023/08/11 06:32:13;;;;;;;250.50;12.30;;;;;;;;;;4933735;29;20035;-79
2023/08/11 06:34:38;;;;;;;322.33;12.65;;;;;;;;;;4934088;29;20534;-80
2023/08/11 06:37:05;;;;;;;296.83;12.75;;;;;;;;;;4934685;29;20055;-79
2023/08/11 06:39:30;;;;;;;233.52;10.52;;;;;;;;;;4935194;29;20130;-80
2023/08/11 06:41:55;;;;;;;422.70;15.20;;;;;;;;;;4934778;29;20130;-80
2023/08/11 06:44:21;;;;;;;199.48;10.18;;;;;;;;;;4934159;29;20619;-80
2023/08/11 06:46:46;;;;;;;345.85;12.70;;;;;;;;;;4934623;29;20063;-80
2023/08/11 06:49:11;;;;;;;347.30;13.18;;;;;;;;;;4934248;29;20119;-80
2023/08/11 06:51:37;;;;;;;306.77;12.48;;;;;;;;;;4934541;29;20047;-81
2023/08/11 06:54:03;;;;;;;421.95;15.15;;;;;;;;;;4933375;29;20094;-79
2023/08/11 06:56:28;;;;;;;605.63;19.05;;;;;;;;;;4933086;29;20500;-79
2023/08/11 06:58:54;;;;;;;485.77;15.00;;;;;;;;;;4934526;29;20043;-79
2023/08/11 07:01:19;;;;;;;434.42;13.90;;;;;;;;;;4948421;29;20463;-79
2023/08/11 07:03:45;;;;;;;489.48;16.02;;;;;;;;;;4951895;29;20077;-79
2023/08/11 07:06:11;;;;;;;250.32;10.85;;;;;;;;;;4951228;29;20458;-79
2023/08/11 07:08:36;;;;;;;318.98;11.07;;;;;;;;;;4947295;29;20044;-79
2023/08/11 07:11:02;;;;;;;402.50;14.55;;;;;;;;;;4933933;29;20047;-78
2023/08/11 07:13:27;;;;;;;339.58;12.10;;;;;;;;;;4933319;29;20122;-78
2023/08/11 07:15:59;;;;;;;219.00;9.15;;;;;;;;;;4937218;29;20039;-79
2023/08/11 07:18:24;;;;;;;279.92;10.32;;;;;;;;;;4919666;29;20181;-80
2023/08/11 07:20:50;;;;;;;305.98;10.32;;;;;;;;;;4933971;29;20084;-80
2023/08/11 07:23:16;;;;;;;318.20;10.52;;;;;;;;;;4933040;29;20126;-79
2023/08/11 07:25:42;;;;;;;202.25;8.27;;;;;;;;;;4947591;29;20074;-79
2023/08/11 07:28:07;;;;;;;164.30;7.10;;;;;;;;;;4935926;29;20145;-78
2023/08/11 07:30:33;;;;;;;200.73;8.18;;;;;;;;;;4951049;29;20054;-81
2023/08/11 07:33:00;;;;;;;189.15;8.15;;;;;;;;;;4941342;28;20133;-80
2023/08/11 07:35:25;;;;;;;162.35;7.47;;;;;;;;;;4934069;29;20179;-79
2023/08/11 07:37:51;;;;;;;263.67;9.68;;;;;;;;;;4933710;29;20547;-80
2023/08/11 07:40:16;;;;;;;324.95;10.60;;;;;;;;;;4938124;29;20047;-80
2023/08/11 07:42:42;;;;;;;143.25;7.10;;;;;;;;;;4951958;29;20039;-80
2023/08/11 07:45:08;;;;;;;144.70;7.05;;;;;;;;;;4951344;29;20416;-79
2023/08/11 07:47:34;;;;;;;174.30;7.47;;;;;;;;;;4936787;29;20047;-80
2023/08/11 07:49:59;;;;;;;237.57;9.18;;;;;;;;;;4934283;29;20203;-80
2023/08/11 07:52:24;;;;;;;65.75;4.70;;;;;;;;;;4945781;29;20463;-81
2023/08/11 07:54:50;;;;;;;27.02;2.83;;;;;;;;;;4952829;29;20051;-81
2023/08/11 07:57:15;;;;;;;4.15;2.47;;;;;;;;;;4952111;29;20079;-81
2023/08/11 07:59:41;;;;;;;2.40;2.20;;;;;;;;;;4941322;29;20189;-79
2023/08/11 08:02:07;;;;;;;7.78;2.58;;;;;;;;;;4938946;29;20099;-79
2023/08/11 08:04:33;;;;;;;1.67;1.55;;;;;;;;;;4933499;29;20062;-79
2023/08/11 08:06:59;;;;;;;1.67;1.58;;;;;;;;;;4933606;29;20036;-80
2023/08/11 08:09:25;;;;;;;2.15;1.60;;;;;;;;;;4948742;29;20043;-79
2023/08/11 08:11:50;;;;;;;3.60;1.90;;;;;;;;;;4952040;29;20134;-80
2023/08/11 08:14:16;;;;;;;2.20;1.90;;;;;;;;;;4951820;29;20056;-81
2023/08/11 08:16:42;;;;;;;2.88;1.90;;;;;;;;;;4952588;29;20047;-80
2023/08/11 08:19:08;;;;;;;1.90;1.40;;;;;;;;;;4937597;29;20122;-80
2023/08/11 08:21:34;;;;;;;1.83;1.55;;;;;;;;;;4933075;29;20496;-80
2023/08/11 08:24:00;;;;;;;1.30;1.20;;;;;;;;;;4932849;29;20047;-80
2023/08/11 08:26:26;;;;;;;1.58;1.30;;;;;;;;;;4932422;29;20361;-80
2023/08/11 08:28:51;;;;;;;1.50;1.30;;;;;;;;;;4943236;29;20130;-79
2023/08/11 08:31:16;;;;;;;1.13;1.02;;;;;;;;;;4951625;29;20051;-80
2023/08/11 08:33:43;;;;;;;3.60;0.90;;;;;;;;;;4934391;29;20201;-79
2023/08/11 08:36:09;;;;;;;0.90;0.80;;;;;;;;;;4950687;29;20098;-80
2023/08/11 08:38:35;;;;;;;2.42;0.75;;;;;;;;;;4948826;29;20047;-79
2023/08/11 08:41:03;;;;;;;2.13;0.70;;;;;;;;;;4935228;29;20114;-80
2023/08/11 08:43:29;;;;;;;0.50;0.50;;;;;;;;;;4932450;29;20055;-79
2023/08/11 08:45:56;;;;;;;1.65;0.50;;;;;;;;;;4935866;29;20126;-80
2023/08/11 08:48:32;;;;;;;1.77;0.40;;;;;;;;;;4934831;29;20420;-79
2023/08/11 08:50:58;;;;;;;1.42;0.55;;;;;;;;;;4936555;29;20055;-80
2023/08/11 08:53:24;;;;;;;0.32;0.30;;;;;;;;;;4934946;29;20055;-80
2023/08/11 08:55:50;;;;;;;1.17;0.30;;;;;;;;;;4931532;29;20047;-80
2023/08/11 08:58:16;;;;;;;1.10;0.20;;;;;;;;;;4950117;29;20051;-80
2023/08/11 09:00:42;;;;;;;1.77;0.22;;;;;;;;;;4937994;29;20051;-81
2023/08/11 09:03:10;;;;;;;0.20;0.20;;;;;;;;;;4928830;29;20142;-80
2023/08/11 09:05:37;;;;;;;1.38;0.30;;;;;;;;;;4929229;29;20040;-80
2023/08/11 09:08:03;;;;;;;1.65;0.32;;;;;;;;;;4928381;29;20069;-80
2023/08/11 09:10:29;;;;;;;0.15;0.15;;;;;;;;;;4927309;29;20117;-80
2023/08/11 09:12:54;;;;;;;2.08;0.20;;;;;;;;;;4928849;29;20151;-80
2023/08/11 09:15:21;;;;;;;4.88;0.30;;;;;;;;;;4926884;29;20047;-80
2023/08/11 09:17:47;;;;;;;0.20;0.20;;;;;;;;;;4926667;29;20039;-81
2023/08/11 09:20:17;;;;;;;1.23;0.10;;;;;;;;;;4926750;29;20047;-81
2023/08/11 09:22:43;;;;;;;1.10;0.10;;;;;;;;;;4927731;29;20063;-80
2023/08/11 09:25:10;;;;;;;0.55;0.10;;;;;;;;;;4927224;29;20199;-81
2023/08/11 09:27:36;;;;;;;0.17;0.08;;;;;;;;;;4927163;29;20056;-81
2023/08/11 09:30:03;;;;;;;0.10;0.10;;;;;;;;;;4910038;29;20111;-81
2023/08/11 09:32:32;;;;;;;0.88;0.10;;;;;;;;;;4926325;29;20131;-80
2023/08/11 09:35:00;;;;;;;0.10;0.10;;;;;;;;;;4926306;29;20039;-81
2023/08/11 09:37:26;;;;;;;1.55;0.10;;;;;;;;;;4927799;29;20049;-79
2023/08/11 09:39:55;;;;;;;0.03;0.03;;;;;;;;;;4928516;29;20082;-81
2023/08/11 09:42:21;;;;;;;0.68;0.10;;;;;;;;;;4928004;29;20052;-81
2023/08/11 09:44:51;;;;;;;0.10;0.10;;;;;;;;;;4928688;29;20431;-80
2023/08/11 09:47:18;;;;;;;0.10;0.03;;;;;;;;;;4928156;29;20560;-80
2023/08/11 09:49:43;;;;;;;0.10;0.10;;;;;;;;;;4928378;29;20055;-80
2023/08/11 09:52:10;;;;;;;2.17;0.10;;;;;;;;;;4927945;29;20598;-80
2023/08/11 09:54:36;;;;;;;0.13;0.10;;;;;;;;;;4928124;29;20050;-80
2023/08/11 09:57:02;;;;;;;0.55;0.20;;;;;;;;;;4927718;29;20063;-81
2023/08/11 09:59:28;;;;;;;0.30;0.30;;;;;;;;;;4943382;29;20133;-80
2023/08/11 10:01:56;;;;;;;0.30;0.28;;;;;;;;;;4935173;28;20130;-80
2023/08/11 10:04:29;;;;;;;0.75;0.38;;;;;;;;;;4927787;29;20531;-80
2023/08/11 10:06:58;;;;;;;2.35;0.75;;;;;;;;;;4928140;29;20039;-79
2023/08/11 10:09:25;;;;;;;1.75;0.80;;;;;;;;;;4927380;29;20052;-79
2023/08/11 10:11:53;;;;;;;3.47;1.35;;;;;;;;;;4927520;29;20048;-79
2023/08/11 10:14:20;;;;;;;2.38;1.23;;;;;;;;;;4927106;29;20525;-80
2023/08/11 10:16:46;;;;;;;4.15;1.50;;;;;;;;;;4928100;29;20043;-79
2023/08/11 10:19:12;;;;;;;2.85;1.40;;;;;;;;;;4927257;29;20091;-80
2023/08/11 10:21:39;;;;;;;4.32;1.50;;;;;;;;;;4927897;29;20047;-80
2023/08/11 10:24:06;;;;;;;4.38;1.40;;;;;;;;;;4910624;29;20530;-81
2023/08/11 10:26:31;;;;;;;3.33;1.73;;;;;;;;;;4927571;29;20048;-81
2023/08/11 10:28:58;;;;;;;5.75;2.33;;;;;;;;;;4927844;29;20051;-80
2023/08/11 10:31:24;;;;;;;6.65;2.50;;;;;;;;;;4927377;29;20051;-80
2023/08/11 10:33:52;;;;;;;5.47;1.67;;;;;;;;;;4927895;29;20044;-80
2023/08/11 10:36:22;;;;;;;2.95;1.38;;;;;;;;;;4927074;29;20078;-81
2023/08/11 10:39:05;;;;;;;2.10;1.10;;;;;;;;;;4927353;29;21039;-81
2023/08/11 10:41:32;;;;;;;4.13;1.20;;;;;;;;;;4927345;29;20051;-81
2023/08/11 10:43:58;;;;;;;2.67;1.27;;;;;;;;;;4915257;29;20073;-80
2023/08/11 10:46:28;;;;;;;1.60;1.00;;;;;;;;;;4926782;29;20123;-81
2023/08/11 10:48:57;;;;;;;1.55;0.90;;;;;;;;;;4927209;29;20523;-80
2023/08/11 10:51:33;;;;;;;1.33;1.00;;;;;;;;;;4916966;29;20110;-80
2023/08/11 10:54:01;;;;;;;2.10;1.20;;;;;;;;;;4926954;29;20056;-81
2023/08/11 10:56:47;;;;;;;;;;;;;;;;;;4927326;29;20056;-80
2023/08/11 10:59:23;;;;;;;3.08;1.65;;;;;;;;;;4936500;29;20029;-80
2023/08/11 11:01:51;;;;;;;4.43;2.00;;;;;;;;;;4931057;29;20063;-80
2023/08/11 11:04:18;;;;;;;5.05;1.90;;;;;;;;;;4926905;29;20052;-80
2023/08/11 11:06:45;;;;;;;6.13;2.15;;;;;;;;;;4926248;29;20055;-80
2023/08/11 11:09:13;;;;;;;4.88;2.20;;;;;;;;;;4925974;29;20069;-80
2023/08/11 11:11:39;;;;;;;8.20;2.05;;;;;;;;;;4926946;29;20058;-81
2023/08/11 11:14:08;;;;;;;6.32;2.00;;;;;;;;;;4926312;29;20047;-80
2023/08/11 11:16:35;;;;;;;7.18;2.00;;;;;;;;;;4927158;29;20068;-79
2023/08/11 11:19:05;;;;;;;8.80;2.70;;;;;;;;;;4926976;29;20067;-80
2023/08/11 11:21:32;;;;;;;7.65;2.20;;;;;;;;;;4926424;29;20400;-80
2023/08/11 11:23:57;;;;;;;7.63;2.10;;;;;;;;;;4926206;29;20138;-80
2023/08/11 11:26:24;;;;;;;5.40;2.28;;;;;;;;;;4926596;29;20513;-79
2023/08/11 11:28:50;;;;;;;8.43;2.22;;;;;;;;;;4926318;29;20095;-79
2023/08/11 11:31:17;;;;;;;7.88;2.15;;;;;;;;;;4925899;29;20071;-80
2023/08/11 11:33:43;;;;;;;4.90;1.73;;;;;;;;;;4926113;29;20048;-78
2023/08/11 11:36:09;;;;;;;9.68;2.20;;;;;;;;;;4926138;29;20066;-80
2023/08/11 11:38:35;;;;;;;7.95;1.80;;;;;;;;;;4926179;29;20056;-79
2023/08/11 11:41:00;;;;;;;11.60;2.70;;;;;;;;;;4925745;29;20054;-78
2023/08/11 11:43:26;;;;;;;6.47;1.70;;;;;;;;;;4926156;29;20047;-78
2023/08/11 11:45:53;;;;;;;4.20;1.65;;;;;;;;;;4926125;29;20047;-78
2023/08/11 11:48:23;;;;;;;6.55;2.03;;;;;;;;;;4926033;29;20052;-77
2023/08/11 11:50:49;;;;;;;6.40;1.70;;;;;;;;;;4926559;29;20071;-79
2023/08/11 11:53:15;;;;;;;7.03;2.00;;;;;;;;;;4912082;29;20559;-78
2023/08/11 11:55:47;;;;;;;5.38;1.75;;;;;;;;;;4926101;29;20130;-78
2023/08/11 11:58:16;;;;;;;4.85;1.90;;;;;;;;;;4927821;29;20040;-78
2023/08/11 12:00:43;;;;;;;7.95;2.00;;;;;;;;;;4935088;29;20126;-78
2023/08/11 12:03:09;;;;;;;7.90;2.20;;;;;;;;;;4925968;29;20067;-80
2023/08/11 12:05:35;;;;;;;4.05;1.90;;;;;;;;;;4929690;29;20118;-80
2023/08/11 12:08:15;;;;;;;7.47;3.15;;;;;;;;;;4926210;29;20139;-78
2023/08/11 12:10:40;;;;;;;6.28;2.92;;;;;;;;;;4908823;29;20048;-80
2023/08/11 12:13:06;;;;;;;10.98;3.22;;;;;;;;;;4927874;29;20044;-78
2023/08/11 12:15:31;;;;;;;7.95;3.70;;;;;;;;;;4935797;29;20160;-78
2023/08/11 12:17:57;;;;;;;20.13;3.90;;;;;;;;;;4926214;29;20143;-78
2023/08/11 12:20:23;;;;;;;7.68;4.25;;;;;;;;;;4932141;29;20047;-78
2023/08/11 12:22:48;;;;;;;14.18;4.25;;;;;;;;;;4931214;29;20065;-79
2023/08/11 12:25:14;;;;;;;38.05;4.90;;;;;;;;;;4936490;29;20505;-78
2023/08/11 12:27:40;;;;;;;22.42;3.80;;;;;;;;;;4929917;29;20047;-79
2023/08/11 12:30:06;;;;;;;24.67;4.30;;;;;;;;;;4929017;29;20078;-78
2023/08/11 12:32:32;;;;;;;12.73;4.40;;;;;;;;;;4933461;29;20058;-80
2023/08/11 12:34:57;;;;;;;15.85;4.43;;;;;;;;;;4937135;29;20051;-78
2023/08/11 12:37:25;;;;;;;27.90;4.80;;;;;;;;;;4929127;29;20170;-76
2023/08/11 12:39:51;;;;;;;28.58;4.20;;;;;;;;;;4929059;29;20112;-77
2023/08/11 12:42:16;;;;;;;24.45;4.30;;;;;;;;;;4928892;29;20312;-78
2023/08/11 12:44:42;;;;;;;7.80;4.07;;;;;;;;;;4929782;29;20063;-79
2023/08/11 12:47:07;;;;;;;21.23;4.40;;;;;;;;;;4929128;29;20068;-78
2023/08/11 12:49:32;;;;;;;16.15;4.60;;;;;;;;;;4929741;29;20051;-78
2023/08/11 12:51:58;;;;;;;36.40;4.47;;;;;;;;;;4929297;29;20054;-79
2023/08/11 12:54:23;;;;;;;84.72;5.70;;;;;;;;;;4929070;29;20051;-79
2023/08/11 12:56:49;;;;;;;79.50;5.13;;;;;;;;;;4929332;29;20480;-79
2023/08/11 12:59:14;;;;;;;46.60;4.38;;;;;;;;;;4935421;29;20047;-79
2023/08/11 13:01:39;;;;;;;22.13;4.35;;;;;;;;;;4931106;29;20421;-79
2023/08/11 13:04:06;;;;;;;51.45;3.97;;;;;;;;;;4928608;29;20043;-79
2023/08/11 13:06:32;;;;;;;22.38;3.78;;;;;;;;;;4929101;29;20040;-78
2023/08/11 13:08:58;;;;;;;12.30;3.53;;;;;;;;;;4929239;29;20086;-80
2023/08/11 13:11:23;;;;;;;16.77;3.72;;;;;;;;;;4928265;29;20488;-79
2023/08/11 13:13:49;;;;;;;5.82;3.28;;;;;;;;;;4928231;29;20151;-79
2023/08/11 13:16:15;;;;;;;6.57;2.97;;;;;;;;;;4928678;29;20051;-80
2023/08/11 13:18:41;;;;;;;6.05;3.10;;;;;;;;;;4927755;29;20401;-79
2023/08/11 13:21:06;;;;;;;7.30;3.13;;;;;;;;;;4927550;29;20047;-80
2023/08/11 13:23:33;;;;;;;9.48;3.65;;;;;;;;;;4928009;29;20048;-80
2023/08/11 13:25:58;;;;;;;11.82;3.85;;;;;;;;;;4928428;29;20040;-79
2023/08/11 13:28:24;;;;;;;17.67;3.95;;;;;;;;;;4927900;29;20055;-76
2023/08/11 13:30:49;;;;;;;9.48;3.30;;;;;;;;;;4927920;29;20091;-78
2023/08/11 13:33:14;;;;;;;8.63;4.15;;;;;;;;;;4927788;29;20111;-78
2023/08/11 13:35:40;;;;;;;15.75;4.43;;;;;;;;;;4928435;29;20048;-78
2023/08/11 13:38:06;;;;;;;11.48;4.43;;;;;;;;;;4927992;29;20119;-78
2023/08/11 13:40:31;;;;;;;13.45;4.93;;;;;;;;;;4928374;29;20152;-78
2023/08/11 13:42:57;;;;;;;11.85;4.82;;;;;;;;;;4928175;29;20558;-77
2023/08/11 13:45:22;;;;;;;20.58;4.72;;;;;;;;;;4927783;29;20051;-77
2023/08/11 13:47:48;;;;;;;47.13;5.38;;;;;;;;;;4928154;29;20393;-79
2023/08/11 13:50:14;;;;;;;8.77;4.90;;;;;;;;;;4927679;29;20440;-77
2023/08/11 13:52:40;;;;;;;37.78;5.00;;;;;;;;;;4928546;29;20051;-79
2023/08/11 13:55:07;;;;;;;17.40;5.00;;;;;;;;;;4927208;29;20040;-78
2023/08/11 13:57:32;;;;;;;10.57;4.85;;;;;;;;;;4929460;29;20051;-79
2023/08/11 13:59:59;;;;;;;12.23;5.03;;;;;;;;;;4940259;29;20537;-78
2023/08/11 14:02:26;;;;;;;14.27;5.22;;;;;;;;;;4927213;29;20044;-78
2023/08/11 14:04:52;;;;;;;10.65;5.07;;;;;;;;;;4931686;29;20047;-79
2023/08/11 14:07:19;;;;;;;8.15;5.32;;;;;;;;;;4937582;29;20058;-79
2023/08/11 14:09:44;;;;;;;36.88;5.72;;;;;;;;;;4934650;29;20036;-78
2023/08/11 14:12:10;;;;;;;7.90;5.40;;;;;;;;;;4932953;29;20099;-80
2023/08/11 14:14:36;;;;;;;13.35;5.68;;;;;;;;;;4933196;29;20043;-80
2023/08/11 14:17:04;;;;;;;24.95;5.57;;;;;;;;;;4934612;29;20043;-79
2023/08/11 14:19:30;;;;;;;21.25;5.80;;;;;;;;;;4917875;29;20425;-79
2023/08/11 14:21:55;;;;;;;9.32;5.60;;;;;;;;;;4933643;29;20067;-79
2023/08/11 14:24:21;;;;;;;14.63;5.30;;;;;;;;;;4933977;29;20051;-79
2023/08/11 14:26:46;;;;;;;14.18;5.30;;;;;;;;;;4934971;29;20110;-79
2023/08/11 14:29:11;;;;;;;21.15;5.07;;;;;;;;;;4933861;29;20106;-79
2023/08/11 14:31:37;;;;;;;58.80;6.10;;;;;;;;;;4934433;29;20048;-78
2023/08/11 14:34:05;;;;;;;34.92;6.20;;;;;;;;;;4934421;29;20479;-80
2023/08/11 14:36:31;;;;;;;17.55;5.65;;;;;;;;;;4934082;29;20465;-80
2023/08/11 14:38:56;;;;;;;42.92;4.97;;;;;;;;;;4934833;29;20048;-79
2023/08/11 14:41:21;;;;;;;83.78;5.07;;;;;;;;;;4933295;29;20055;-79
2023/08/11 14:43:47;;;;;;;80.13;5.43;;;;;;;;;;4934546;29;20047;-79
2023/08/11 14:46:13;;;;;;;30.40;4.57;;;;;;;;;;4933479;29;20059;-79
2023/08/11 14:48:38;;;;;;;76.80;5.15;;;;;;;;;;4935036;29;20050;-77
2023/08/11 14:51:06;;;;;;;21.77;4.45;;;;;;;;;;4935269;29;20406;-78
2023/08/11 14:53:32;;;;;;;17.50;4.18;;;;;;;;;;4937658;29;20051;-78
2023/08/11 14:55:57;;;;;;;15.82;4.28;;;;;;;;;;4936098;29;20040;-77
2023/08/11 14:58:23;;;;;;;12.98;4.18;;;;;;;;;;4929958;29;20117;-78
2023/08/11 15:00:49;;;;;;;7.28;4.03;;;;;;;;;;4925187;29;20059;-80
2023/08/11 15:03:15;;;;;;;4.40;3.20;;;;;;;;;;4919341;29;20093;-80
2023/08/11 15:05:41;;;;;;;3.53;3.17;;;;;;;;;;4927524;29;20051;-81
2023/08/11 15:08:07;;;;;;;6.68;3.65;;;;;;;;;;4926746;29;20889;-80
2023/08/11 15:10:33;;;;;;;4.35;3.50;;;;;;;;;;4926342;29;20048;-79
2023/08/11 15:13:01;;;;;;;4.32;3.45;;;;;;;;;;4927030;29;20067;-80
2023/08/11 15:15:27;;;;;;;7.30;3.07;;;;;;;;;;4921700;29;20048;-80
2023/08/11 15:17:53;;;;;;;4.82;3.28;;;;;;;;;;4924125;29;20527;-80
2023/08/11 15:20:18;;;;;;;3.70;2.60;;;;;;;;;;4922066;29;20031;-80
2023/08/11 15:22:44;;;;;;;4.53;2.10;;;;;;;;;;4923087;29;20052;-80
2023/08/11 15:25:09;;;;;;;5.10;2.85;;;;;;;;;;4921666;29;20152;-81
2023/08/11 15:27:35;;;;;;;3.13;2.17;;;;;;;;;;4921935;29;20411;-80
2023/08/11 15:30:02;;;;;;;3.60;2.10;;;;;;;;;;4923066;29;20480;-80
2023/08/11 15:32:28;;;;;;;5.82;2.50;;;;;;;;;;4915075;29;20048;-80
2023/08/11 15:34:53;;;;;;;3.83;1.90;;;;;;;;;;4925469;29;20190;-79
2023/08/11 15:37:19;;;;;;;5.03;2.20;;;;;;;;;;4926214;29;20512;-81
2023/08/11 15:39:44;;;;;;;4.85;1.92;;;;;;;;;;4925001;29;20047;-80
2023/08/11 15:42:10;;;;;;;3.55;2.03;;;;;;;;;;4924934;29;20555;-82
2023/08/11 15:44:35;;;;;;;4.68;2.17;;;;;;;;;;4924953;29;20615;-80
2023/08/11 15:47:01;;;;;;;3.80;2.30;;;;;;;;;;4924136;29;20044;-79
2023/08/11 15:49:27;;;;;;;4.95;2.28;;;;;;;;;;4907960;29;20050;-79
2023/08/11 15:51:55;;;;;;;6.45;2.15;;;;;;;;;;4925459;29;20405;-79
2023/08/11 15:54:22;;;;;;;4.97;2.30;;;;;;;;;;4924189;29;20058;-79
2023/08/11 15:56:48;;;;;;;7.50;2.45;;;;;;;;;;4925419;29;20210;-79
2023/08/11 15:59:14;;;;;;;5.65;2.28;;;;;;;;;;4926893;29;20366;-79
2023/08/11 16:01:40;;;;;;;7.55;2.55;;;;;;;;;;4944059;28;20051;-80
2023/08/11 16:04:06;;;;;;;7.63;2.22;;;;;;;;;;4943903;29;20043;-78
2023/08/11 16:06:31;;;;;;;5.78;2.28;;;;;;;;;;4944002;29;20895;-81
2023/08/11 16:08:57;;;;;;;7.32;2.72;;;;;;;;;;4941862;29;20040;-80
2023/08/11 16:11:24;;;;;;;6.25;2.63;;;;;;;;;;4931437;29;20535;-80
2023/08/11 16:13:49;;;;;;;6.45;2.42;;;;;;;;;;4931936;29;20054;-81
2023/08/11 16:16:14;;;;;;;11.10;2.60;;;;;;;;;;4932466;29;20052;-81
2023/08/11 16:18:40;;;;;;;9.13;2.60;;;;;;;;;;4932398;29;20591;-80
2023/08/11 16:21:05;;;;;;;7.38;2.33;;;;;;;;;;4932724;29;20047;-80
2023/08/11 16:23:31;;;;;;;7.15;2.72;;;;;;;;;;4933220;29;20820;-80
2023/08/11 16:25:57;;;;;;;7.38;2.35;;;;;;;;;;4932828;29;20461;-80
2023/08/11 16:28:23;;;;;;;7.20;2.42;;;;;;;;;;4932119;29;20071;-80
2023/08/11 16:30:48;;;;;;;7.45;2.40;;;;;;;;;;4933025;29;20047;-80
2023/08/11 16:33:13;;;;;;;8.60;2.63;;;;;;;;;;4915201;29;20130;-79
2023/08/11 16:35:39;;;;;;;8.75;2.45;;;;;;;;;;4914121;29;20135;-80
2023/08/11 16:38:04;;;;;;;10.25;2.42;;;;;;;;;;4913663;29;20067;-80
2023/08/11 16:40:31;;;;;;;12.63;2.85;;;;;;;;;;4914521;29;20036;-81
2023/08/11 16:42:57;;;;;;;9.60;2.53;;;;;;;;;;4932945;29;20039;-80
2023/08/11 16:45:23;;;;;;;11.05;2.45;;;;;;;;;;4932688;29;20674;-81
2023/08/11 16:47:49;;;;;;;9.32;2.40;;;;;;;;;;4933006;29;20067;-80
2023/08/11 16:50:14;;;;;;;11.25;2.35;;;;;;;;;;4932481;29;20047;-80
2023/08/11 16:52:39;;;;;;;8.23;2.65;;;;;;;;;;4931282;29;20413;-80
2023/08/11 16:55:06;;;;;;;9.93;2.22;;;;;;;;;;4932056;29;20084;-79
2023/08/11 16:57:31;;;;;;;11.10;2.45;;;;;;;;;;4933518;29;20412;-80
2023/08/11 16:59:57;;;;;;;8.73;2.58;;;;;;;;;;4943256;29;20036;-80
2023/08/11 17:02:22;;;;;;;8.10;2.78;;;;;;;;;;4916131;29;20540;-79
2023/08/11 17:04:48;;;;;;;9.13;2.65;;;;;;;;;;4932196;29;20044;-81
2023/08/11 17:07:13;;;;;;;9.25;2.72;;;;;;;;;;4934631;29;20512;-80
2023/08/11 17:09:38;;;;;;;12.55;2.80;;;;;;;;;;4935751;29;20044;-80
2023/08/11 17:12:04;;;;;;;11.77;3.10;;;;;;;;;;4936111;29;20044;-80
2023/08/11 17:14:29;;;;;;;12.38;3.20;;;;;;;;;;4935876;29;20052;-80
2023/08/11 17:16:55;;;;;;;12.50;3.30;;;;;;;;;;4935800;29;20134;-80
2023/08/11 17:19:20;;;;;;;14.52;3.70;;;;;;;;;;4935915;29;20143;-80
2023/08/11 17:21:45;;;;;;;11.30;3.28;;;;;;;;;;4935996;29;20122;-80
2023/08/11 17:24:11;;;;;;;13.82;3.53;;;;;;;;;;4935355;29;20571;-81
2023/08/11 17:26:37;;;;;;;11.52;3.42;;;;;;;;;;4935857;29;20568;-80
2023/08/11 17:29:03;;;;;;;15.65;4.25;;;;;;;;;;4936307;29;20035;-81
2023/08/11 17:31:28;;;;;;;14.25;3.90;;;;;;;;;;4935355;29;20044;-81
2023/08/11 17:33:54;;;;;;;15.55;3.72;;;;;;;;;;4935021;29;20420;-81
2023/08/11 17:36:25;;;;;;;14.38;3.72;;;;;;;;;;4935408;29;20578;-81
2023/08/11 17:38:52;;;;;;;14.48;3.72;;;;;;;;;;4935888;29;20445;-81
2023/08/11 17:41:18;;;;;;;16.38;3.83;;;;;;;;;;4935122;29;20051;-80
2023/08/11 17:43:44;;;;;;;19.42;4.43;;;;;;;;;;4935513;29;20043;-80
2023/08/11 17:46:09;;;;;;;14.57;4.00;;;;;;;;;;4934828;29;20080;-80
2023/08/11 17:48:34;;;;;;;17.48;4.45;;;;;;;;;;4935707;29;20044;-81
2023/08/11 17:51:00;;;;;;;17.08;4.78;;;;;;;;;;4935649;29;20122;-80
2023/08/11 17:53:25;;;;;;;15.60;5.07;;;;;;;;;;4935247;29;20050;-80
2023/08/11 17:55:51;;;;;;;21.17;4.97;;;;;;;;;;4935540;29;20043;-81
2023/08/11 17:58:16;;;;;;;20.08;5.38;;;;;;;;;;4942269;29;20497;-81
2023/08/11 18:00:43;;;;;;;22.10;4.65;;;;;;;;;;4938839;29;20052;-81
2023/08/11 18:03:08;;;;;;;18.83;3.97;;;;;;;;;;4935247;29;20046;-81
2023/08/11 18:05:38;;;;;;;17.75;4.18;;;;;;;;;;4935301;29;20043;-82
2023/08/11 18:08:04;;;;;;;18.00;4.78;;;;;;;;;;4935264;29;20043;-79
2023/08/11 18:10:30;;;;;;;18.13;4.63;;;;;;;;;;4934803;29;20131;-80
2023/08/11 18:12:55;;;;;;;15.50;4.40;;;;;;;;;;4935458;29;20398;-81
2023/08/11 18:15:21;;;;;;;17.23;4.25;;;;;;;;;;4935072;29;20481;-81
2023/08/11 18:17:48;;;;;;;11.85;3.40;;;;;;;;;;4934761;29;20114;-81
2023/08/11 18:20:13;;;;;;;10.95;3.60;;;;;;;;;;4934339;29;20036;-81
2023/08/11 18:22:39;;;;;;;14.93;4.05;;;;;;;;;;4934949;29;20043;-81
2023/08/11 18:25:05;;;;;;;14.98;3.50;;;;;;;;;;4933938;29;20039;-80
2023/08/11 18:27:31;;;;;;;16.15;4.05;;;;;;;;;;4935383;29;20048;-81
2023/08/11 18:29:56;;;;;;;11.32;3.65;;;;;;;;;;4935504;29;20579;-82
2023/08/11 18:32:22;;;;;;;13.88;3.45;;;;;;;;;;4917506;29;20050;-81
2023/08/11 18:34:47;;;;;;;15.32;3.70;;;;;;;;;;4934066;29;20047;-82
2023/08/11 18:37:12;;;;;;;13.88;3.95;;;;;;;;;;4934512;29;20083;-81
2023/08/11 18:39:38;;;;;;;14.77;3.97;;;;;;;;;;4934980;29;20046;-81
2023/08/11 18:42:03;;;;;;;12.82;4.07;;;;;;;;;;4934435;29;20453;-79
2023/08/11 18:44:29;;;;;;;14.40;4.20;;;;;;;;;;4934549;29;20192;-81
2023/08/11 18:46:55;;;;;;;13.23;3.92;;;;;;;;;;4934260;29;20527;-81
2023/08/11 18:49:20;;;;;;;16.52;4.03;;;;;;;;;;4933966;29;20588;-80
2023/08/11 18:51:46;;;;;;;13.75;4.72;;;;;;;;;;4933960;29;20151;-81
2023/08/11 18:54:11;;;;;;;13.80;4.72;;;;;;;;;;4934047;29;20434;-80
2023/08/11 18:56:39;;;;;;;21.60;6.03;;;;;;;;;;4934588;29;20043;-80
2023/08/11 18:59:05;;;;;;;17.13;5.40;;;;;;;;;;4935316;29;20047;-79
2023/08/11 19:01:31;;;;;;;23.17;7.72;;;;;;;;;;4939818;29;20067;-79
2023/08/11 19:03:57;;;;;;;31.27;7.43;;;;;;;;;;4934333;29;20075;-80
2023/08/11 19:06:22;;;;;;;19.35;7.35;;;;;;;;;;4933633;29;20118;-81
2023/08/11 19:08:47;;;;;;;21.70;6.68;;;;;;;;;;4934201;29;20571;-80
2023/08/11 19:11:13;;;;;;;16.27;5.95;;;;;;;;;;4932637;29;20435;-80
2023/08/11 19:13:39;;;;;;;20.75;6.18;;;;;;;;;;4934251;29;20036;-80
2023/08/11 19:16:04;;;;;;;23.63;7.10;;;;;;;;;;4933769;29;20040;-81
2023/08/11 19:18:30;;;;;;;28.42;7.30;;;;;;;;;;4933490;29;20055;-79
2023/08/11 19:20:56;;;;;;;20.15;6.32;;;;;;;;;;4933457;29;20095;-79
2023/08/11 19:23:22;;;;;;;25.70;7.10;;;;;;;;;;4932422;29;20420;-82
2023/08/11 19:25:49;;;;;;;22.92;7.35;;;;;;;;;;4931958;29;20158;-79
2023/08/11 19:28:15;;;;;;;31.83;9.97;;;;;;;;;;4930741;29;20102;-79
2023/08/11 19:30:41;;;;;;;32.63;12.80;;;;;;;;;;4931757;29;20512;-79
2023/08/11 19:33:06;;;;;;;29.00;8.27;;;;;;;;;;4943571;29;20039;-81
2023/08/11 19:35:32;;;;;;;22.05;7.80;;;;;;;;;;4950476;29;20129;-79
2023/08/11 19:37:57;;;;;;;25.65;7.45;;;;;;;;;;4950665;29;20057;-81
2023/08/11 19:40:22;;;;;;;28.52;7.47;;;;;;;;;;4951230;29;20043;-81
2023/08/11 19:42:48;;;;;;;29.63;7.35;;;;;;;;;;4936254;29;20427;-80
2023/08/11 19:45:13;;;;;;;31.50;7.95;;;;;;;;;;4951889;29;20085;-81
2023/08/11 19:47:38;;;;;;;31.85;7.88;;;;;;;;;;4952488;29;20066;-81
2023/08/11 19:50:05;;;;;;;29.98;7.47;;;;;;;;;;4952570;29;20039;-80
2023/08/11 19:52:30;;;;;;;27.67;7.72;;;;;;;;;;4952221;29;20043;-80
2023/08/11 19:54:55;;;;;;;35.20;8.55;;;;;;;;;;4952787;29;20046;-80
2023/08/11 19:57:21;;;;;;;34.63;8.77;;;;;;;;;;4952155;29;20098;-80
2023/08/11 19:59:47;;;;;;;26.48;8.20;;;;;;;;;;4940580;29;20043;-80
2023/08/11 20:02:13;;;;;;;27.60;8.35;;;;;;;;;;4938982;28;20082;-79
2023/08/11 20:04:38;;;;;;;34.10;9.07;;;;;;;;;;4933312;29;20126;-80
2023/08/11 20:07:04;;;;;;;24.23;9.15;;;;;;;;;;4932740;29;20046;-80
2023/08/11 20:09:29;;;;;;;26.48;9.35;;;;;;;;;;4933226;29;20187;-80
2023/08/11 20:11:56;;;;;;;25.73;9.13;;;;;;;;;;4916250;29;20086;-80
2023/08/11 20:14:21;;;;;;;35.13;10.70;;;;;;;;;;4916126;29;20054;-81
2023/08/11 20:16:48;;;;;;;32.45;10.57;;;;;;;;;;4933159;29;20048;-80
2023/08/11 20:19:14;;;;;;;42.25;11.15;;;;;;;;;;4932436;29;20048;-80
2023/08/11 20:21:40;;;;;;;38.95;10.48;;;;;;;;;;4933183;29;20044;-77
2023/08/11 20:24:05;;;;;;;37.58;11.38;;;;;;;;;;4933059;29;20134;-80
2023/08/11 20:26:31;;;;;;;33.88;10.20;;;;;;;;;;4932666;29;20047;-80